Aviation Digital Data Service (ADDS)

Output produced by METARs form (1547 UTC 03 December 2021)
found at http://www.aviationweather.gov/metar/data/
 
VTUD 031200Z 00000KT CAVOK 17/07 Q1017 NOSIG
VTUD 031100Z 05004KT CAVOK 24/05 Q1017 NOSIG
VTUD 031000Z 05006KT CAVOK 26/04 Q1016 NOSIG
VTUD 030900Z 36005KT 320V060 CAVOK 26/04 Q1016 NOSIG
VTUD 030800Z 36005KT 310V040 CAVOK 27/05 Q1016 NOSIG
VTUD 030700Z 03006KT 340V110 CAVOK 27/05 Q1017 NOSIG
VTUD 030600Z VRB05KT CAVOK 27/06 Q1019 NOSIG
VTUD 030500Z 08005KT 330V140 CAVOK 27/07 Q1020 NOSIG
VTUD 030400Z 04006KT 360V120 CAVOK 24/07 Q1021 NOSIG
VTUD 030300Z 10007KT 060V120 CAVOK 22/10 Q1022 NOSIG
VTUD 030200Z 10006KT CAVOK 20/11 Q1022 NOSIG
VTUD 030100Z 07004KT 040V100 CAVOK 17/13 Q1021 NOSIG
VTUD 030000Z 00000KT CAVOK 14/14 Q1020 NOSIG
VTUD 022300Z 00000KT CAVOK 14/13 Q1019 NOSIG
VTUD 022200Z 00000KT CAVOK 14/13 Q1019 NOSIG
TAF VTUD 031100Z 0312/0412 06005KT CAVOK